Time;durP1;ratioP1;P1;durP2;ratioP2;P2;SDS_P1;SDS_P2;PMS_P1;PMS_P2;Temp;Humidity;BMP_temperature;BMP_pressure;BME280_temperature;BME280_humidity;BME280_pressure;Samples;Min_cycle;Max_cycle;Signal;HPM_P1;HPM_P2
2021/01/26 00:00:26;;;;;;;1.33;1.10;;;17.40;51.70;;;;;;5084496;28;20541;-51
2021/01/26 00:02:52;;;;;;;1.52;1.00;;;17.40;51.60;;;;;;5084129;28;20551;-50
2021/01/26 00:05:17;;;;;;;1.33;1.00;;;17.40;51.60;;;;;;5084525;28;20176;-52
2021/01/26 00:07:43;;;;;;;2.80;1.08;;;17.30;51.60;;;;;;5084383;28;20209;-50
2021/01/26 00:10:09;;;;;;;1.63;1.20;;;17.30;51.60;;;;;;5084544;28;20181;-51
2021/01/26 00:12:35;;;;;;;1.33;1.23;;;17.40;51.60;;;;;;5066176;28;20319;-51
2021/01/26 00:15:01;;;;;;;1.90;1.00;;;17.30;51.60;;;;;;5084266;28;20257;-51
2021/01/26 00:17:26;;;;;;;1.85;1.20;;;17.30;51.60;;;;;;5084101;28;20226;-49
2021/01/26 00:19:52;;;;;;;2.25;1.05;;;17.30;51.60;;;;;;5084277;28;20446;-50
2021/01/26 00:22:17;;;;;;;1.85;1.10;;;17.20;51.60;;;;;;5084330;28;20581;-49
2021/01/26 00:24:43;;;;;;;1.17;0.90;;;17.30;51.70;;;;;;5083617;28;20170;-49
2021/01/26 00:27:08;;;;;;;2.45;1.10;;;17.20;51.50;;;;;;5083891;28;20258;-52
2021/01/26 00:29:34;;;;;;;1.17;1.08;;;17.20;51.50;;;;;;5084457;28;20174;-53
2021/01/26 00:32:00;;;;;;;1.50;1.20;;;17.20;51.50;;;;;;5084248;28;20170;-53
2021/01/26 00:34:25;;;;;;;2.47;1.17;;;17.20;51.50;;;;;;5084528;28;20510;-55
2021/01/26 00:36:51;;;;;;;1.42;1.10;;;17.20;51.50;;;;;;5084479;28;20178;-50
2021/01/26 00:39:16;;;;;;;1.25;1.00;;;17.20;51.70;;;;;;5083945;28;20197;-56
2021/01/26 00:41:42;;;;;;;3.00;1.05;;;17.10;51.50;;;;;;5084095;28;20186;-51
2021/01/26 00:44:08;;;;;;;2.55;1.65;;;17.20;51.60;;;;;;5084158;28;20188;-56
2021/01/26 00:46:33;;;;;;;2.03;1.23;;;17.10;51.70;;;;;;5083887;28;20555;-55
2021/01/26 00:48:59;;;;;;;2.38;1.27;;;17.10;51.50;;;;;;5083806;28;20188;-50
2021/01/26 00:51:24;;;;;;;2.13;1.00;;;17.10;51.50;;;;;;5084115;28;20675;-54
2021/01/26 00:53:50;;;;;;;1.75;1.20;;;17.10;51.60;;;;;;5084487;28;20781;-56
2021/01/26 00:56:15;;;;;;;0.93;0.85;;;17.10;51.50;;;;;;5084095;28;20174;-53
2021/01/26 00:58:41;;;;;;;1.63;1.30;;;17.10;51.50;;;;;;5083924;28;20280;-50
2021/01/26 01:01:07;;;;;;;1.67;1.10;;;17.10;51.60;;;;;;5083659;28;20963;-51
2021/01/26 01:03:32;;;;;;;3.50;1.35;;;17.10;51.60;;;;;;5083933;28;20201;-51
2021/01/26 01:05:58;;;;;;;2.30;1.00;;;17.10;51.50;;;;;;5083906;28;20178;-49
2021/01/26 01:08:23;;;;;;;2.30;1.13;;;17.10;51.50;;;;;;5083731;28;21039;-50
2021/01/26 01:10:50;;;;;;;0.93;0.85;;;17.00;51.40;;;;;;5083536;28;20186;-49
2021/01/26 01:13:16;;;;;;;1.95;1.10;;;17.00;51.50;;;;;;5084500;28;20237;-49
2021/01/26 01:15:41;;;;;;;1.42;1.10;;;17.00;51.50;;;;;;5087441;28;20178;-54
2021/01/26 01:18:07;;;;;;;0.82;0.82;;;17.00;51.50;;;;;;5087402;28;20925;-49
2021/01/26 01:20:32;;;;;;;2.20;1.10;;;17.00;51.50;;;;;;5087510;28;20224;-49
2021/01/26 01:22:58;;;;;;;2.08;1.10;;;16.90;51.50;;;;;;5087447;28;20227;-50
2021/01/26 01:25:24;;;;;;;1.17;0.90;;;17.00;51.50;;;;;;5087322;28;20178;-49
2021/01/26 01:27:49;;;;;;;1.30;1.20;;;17.00;52.10;;;;;;5086849;28;20231;-48
2021/01/26 01:30:22;;;;;;;1.33;0.80;;;16.90;51.40;;;;;;5087199;28;20174;-47
2021/01/26 01:32:48;;;;;;;1.75;1.20;;;16.90;51.40;;;;;;5087654;28;20370;-47
2021/01/26 01:35:13;;;;;;;2.85;1.20;;;16.90;51.40;;;;;;5087274;28;20620;-48
2021/01/26 01:37:39;;;;;;;1.85;1.10;;;16.90;51.40;;;;;;5086992;28;20169;-51
2021/01/26 01:40:05;;;;;;;1.20;1.08;;;16.90;51.40;;;;;;5087291;28;20174;-52
2021/01/26 01:42:31;;;;;;;1.52;1.10;;;16.90;51.30;;;;;;5087025;28;20287;-54
2021/01/26 01:44:56;;;;;;;1.73;0.80;;;16.90;51.40;;;;;;5086990;28;20245;-51
2021/01/26 01:47:28;;;;;;;1.50;0.98;;;16.90;51.30;;;;;;5087009;28;20220;-51
2021/01/26 01:49:53;;;;;;;1.10;1.00;;;16.90;51.30;;;;;;5068865;28;20177;-53
2021/01/26 01:52:24;;;;;;;2.15;1.02;;;16.80;51.30;;;;;;5068893;28;20177;-50
2021/01/26 01:55:01;;;;;;;1.10;0.88;;;16.80;51.40;;;;;;5068882;28;20525;-56
2021/01/26 01:57:28;;;;;;;1.83;1.10;;;16.80;51.40;;;;;;5086632;28;20177;-52
2021/01/26 01:59:56;;;;;;;1.63;1.17;;;16.80;51.30;;;;;;5068890;28;20169;-52
2021/01/26 02:02:22;;;;;;;2.40;1.25;;;16.80;51.40;;;;;;5068731;28;20162;-48
2021/01/26 02:04:47;;;;;;;2.38;0.98;;;16.80;51.40;;;;;;5068688;28;20624;-53
2021/01/26 02:07:13;;;;;;;1.10;1.00;;;16.80;51.50;;;;;;5086256;28;20262;-49
2021/01/26 02:09:39;;;;;;;2.10;0.98;;;16.70;51.50;;;;;;5068457;28;20166;-51
2021/01/26 02:12:06;;;;;;;1.95;0.95;;;16.80;51.50;;;;;;5086355;28;20166;-48
2021/01/26 02:14:36;;;;;;;0.80;0.80;;;16.80;51.50;;;;;;5086291;28;20181;-49
2021/01/26 02:17:14;;;;;;;2.13;1.05;;;16.80;51.50;;;;;;5086200;28;20178;-52
2021/01/26 02:20:28;;;;;;;2.00;1.00;;;16.70;51.50;;;;;;5068082;28;20696;-52
2021/01/26 02:23:18;;;;;;;1.08;0.80;;;16.70;51.40;;;;;;5060045;28;20194;-51
2021/01/26 02:26:11;;;;;;;1.08;0.90;;;16.70;51.40;;;;;;5086330;28;20180;-57
2021/01/26 02:28:52;;;;;;;1.17;1.08;;;16.70;51.50;;;;;;5086565;28;20229;-54
2021/01/26 02:31:27;;;;;;;2.90;0.98;;;16.70;51.50;;;;;;5068157;28;20173;-48
2021/01/26 02:34:16;;;;;;;1.65;1.00;;;16.70;51.50;;;;;;5086300;28;20742;-57
2021/01/26 02:36:42;;;;;;;1.95;0.80;;;16.60;51.50;;;;;;5085923;28;20178;-48
2021/01/26 02:39:35;;;;;;;2.40;1.20;;;16.70;51.50;;;;;;5086021;28;20177;-49
2021/01/26 02:42:26;;;;;;;1.25;0.90;;;16.60;51.50;;;;;;5085971;28;20193;-53
2021/01/26 02:45:07;;;;;;;1.58;0.98;;;16.70;51.50;;;;;;5074595;28;20194;-51
2021/01/26 02:47:47;;;;;;;2.22;1.00;;;16.60;51.50;;;;;;5069894;28;20246;-57
2021/01/26 02:50:18;;;;;;;2.10;1.02;;;16.60;51.50;;;;;;5068343;28;20208;-50
2021/01/26 02:53:09;;;;;;;2.10;0.90;;;16.60;51.50;;;;;;5067557;28;20174;-50
2021/01/26 02:55:44;;;;;;;1.75;0.93;;;16.60;51.60;;;;;;5085565;28;20170;-51
2021/01/26 02:58:17;;;;;;;1.20;0.88;;;16.60;51.50;;;;;;5085468;28;20177;-48
2021/01/26 03:00:43;;;;;;;1.23;1.02;;;16.60;51.40;;;;;;5067757;28;20182;-50
2021/01/26 03:03:14;;;;;;;1.35;1.05;;;16.60;51.50;;;;;;5067648;28;20176;-48
2021/01/26 03:05:44;;;;;;;2.92;0.98;;;16.60;51.40;;;;;;5067539;28;20253;-56
2021/01/26 03:08:12;;;;;;;2.80;1.20;;;16.50;51.50;;;;;;5067459;28;20216;-49
2021/01/26 03:10:40;;;;;;;1.63;0.82;;;16.50;51.50;;;;;;5067552;28;20231;-54
2021/01/26 03:13:08;;;;;;;1.00;0.80;;;16.50;51.50;;;;;;5067093;28;20268;-51
2021/01/26 03:15:42;;;;;;;2.42;1.33;;;16.50;51.60;;;;;;5066823;28;20174;-52
2021/01/26 03:18:10;;;;;;;2.47;0.98;;;16.50;51.50;;;;;;5067167;28;20212;-51
2021/01/26 03:20:39;;;;;;;3.15;1.15;;;16.50;51.60;;;;;;5067076;28;20689;-48
2021/01/26 03:23:17;;;;;;;1.35;0.70;;;16.50;51.50;;;;;;5066980;28;20277;-52
2021/01/26 03:25:46;;;;;;;2.05;1.08;;;16.40;51.50;;;;;;5067413;28;20169;-48
2021/01/26 03:28:12;;;;;;;2.20;0.95;;;16.40;51.50;;;;;;5085118;28;20561;-56
2021/01/26 03:30:39;;;;;;;1.90;1.38;;;16.50;51.50;;;;;;5066805;28;20177;-51
2021/01/26 03:33:11;;;;;;;1.58;0.98;;;16.50;51.60;;;;;;5067330;28;20261;-52
2021/01/26 03:35:37;;;;;;;1.75;0.80;;;16.50;51.50;;;;;;5066365;28;20205;-52
2021/01/26 03:38:10;;;;;;;1.63;0.70;;;16.40;51.50;;;;;;5066399;28;20185;-50
2021/01/26 03:40:36;;;;;;;1.10;0.90;;;16.50;51.60;;;;;;5066952;28;20170;-49
2021/01/26 03:43:01;;;;;;;1.52;0.95;;;16.40;51.50;;;;;;5066736;28;20248;-54
2021/01/26 03:45:27;;;;;;;2.08;0.90;;;16.40;51.50;;;;;;5084825;28;20193;-50
2021/01/26 03:48:08;;;;;;;1.02;0.82;;;16.40;51.50;;;;;;5066556;28;20659;-49
2021/01/26 03:51:00;;;;;;;2.08;0.80;;;16.40;51.50;;;;;;5084920;28;20188;-52
2021/01/26 03:53:44;;;;;;;2.15;1.15;;;16.40;51.50;;;;;;5084698;28;20209;-54
2021/01/26 03:56:17;;;;;;;1.92;0.80;;;16.40;51.50;;;;;;5066616;28;20177;-49
2021/01/26 03:59:27;;;;;;;1.90;1.15;;;16.40;51.50;;;;;;5084452;28;20174;-48
2021/01/26 04:02:13;;;;;;;1.85;0.80;;;16.40;51.50;;;;;;5069689;28;20688;-48
2021/01/26 04:04:49;;;;;;;2.33;1.15;;;16.40;51.50;;;;;;5066663;28;20185;-50
2021/01/26 04:07:22;;;;;;;1.00;0.70;;;16.30;51.50;;;;;;5066320;28;20205;-54
2021/01/26 04:09:51;;;;;;;2.17;0.93;;;16.30;51.50;;;;;;5066342;28;20286;-49
2021/01/26 04:12:19;;;;;;;0.80;0.80;;;16.30;51.50;;;;;;5066310;28;20612;-46
2021/01/26 04:14:58;;;;;;;1.40;1.05;;;16.30;51.50;;;;;;5066302;28;20176;-51
2021/01/26 04:17:39;;;;;;;1.88;0.80;;;16.30;51.40;;;;;;5066322;28;20201;-51
2021/01/26 04:20:33;;;;;;;2.40;1.00;;;16.30;51.50;;;;;;5065949;28;20272;-49
2021/01/26 04:22:59;;;;;;;1.20;0.80;;;16.30;51.50;;;;;;5066104;28;20268;-52
2021/01/26 04:25:35;;;;;;;1.17;0.65;;;16.30;51.60;;;;;;5066043;28;20764;-48
2021/01/26 04:28:05;;;;;;;1.63;0.90;;;16.30;51.60;;;;;;5067405;28;21041;-50
2021/01/26 04:30:31;;;;;;;0.90;0.60;;;16.30;51.60;;;;;;5066441;28;20201;-51
2021/01/26 04:32:58;;;;;;;2.25;1.05;;;16.30;51.70;;;;;;5084520;28;20429;-49
2021/01/26 04:35:24;;;;;;;2.47;0.90;;;16.30;51.60;;;;;;5066431;28;20277;-50
2021/01/26 04:37:49;;;;;;;1.80;0.70;;;16.20;51.60;;;;;;5084358;28;20182;-52
2021/01/26 04:40:15;;;;;;;1.45;0.77;;;16.30;51.70;;;;;;5084052;28;20181;-52
2021/01/26 04:42:41;;;;;;;0.73;0.63;;;16.20;51.60;;;;;;5065794;28;20181;-50
2021/01/26 04:45:11;;;;;;;2.88;1.00;;;16.20;51.60;;;;;;5084076;28;21040;-52
2021/01/26 04:47:44;;;;;;;2.30;0.90;;;16.20;51.60;;;;;;5084030;28;20254;-56
2021/01/26 04:50:25;;;;;;;2.47;1.00;;;16.20;51.60;;;;;;5070058;28;20185;-52
2021/01/26 04:53:14;;;;;;;1.48;0.77;;;16.20;51.70;;;;;;5070204;28;20639;-50
2021/01/26 04:55:58;;;;;;;0.90;0.80;;;16.20;51.60;;;;;;5072240;28;20246;-48
2021/01/26 04:58:44;;;;;;;0.95;0.70;;;16.20;51.70;;;;;;5088109;28;20177;-51
2021/01/26 05:01:16;;;;;;;1.50;0.93;;;16.20;51.70;;;;;;5087940;28;20968;-47
2021/01/26 05:04:10;;;;;;;2.53;1.27;;;16.20;51.70;;;;;;5069941;28;20177;-54
2021/01/26 05:06:55;;;;;;;2.60;0.90;;;16.20;51.70;;;;;;5087708;28;20320;-49
2021/01/26 05:09:25;;;;;;;3.15;0.80;;;16.20;52.30;;;;;;5069434;28;20181;-49
2021/01/26 05:11:51;;;;;;;1.83;0.90;;;16.10;51.60;;;;;;5069709;28;20599;-49
2021/01/26 05:14:22;;;;;;;1.38;0.80;;;16.20;51.70;;;;;;5069634;28;20193;-51
2021/01/26 05:16:58;;;;;;;1.92;0.80;;;16.20;51.70;;;;;;5070122;28;20181;-48
2021/01/26 05:19:28;;;;;;;1.70;0.93;;;16.10;51.60;;;;;;5069706;28;20279;-55
2021/01/26 05:22:04;;;;;;;1.65;1.00;;;16.10;51.70;;;;;;5087713;28;20620;-54
2021/01/26 05:24:46;;;;;;;1.67;0.70;;;16.10;51.70;;;;;;5069526;28;20260;-50
2021/01/26 05:27:12;;;;;;;1.50;0.60;;;16.10;51.70;;;;;;5070159;28;20663;-53
2021/01/26 05:29:37;;;;;;;1.83;0.80;;;16.10;51.60;;;;;;5087522;28;20170;-52
2021/01/26 05:32:06;;;;;;;2.10;0.88;;;16.10;51.60;;;;;;5087401;28;20746;-49
2021/01/26 05:34:33;;;;;;;1.20;0.80;;;16.10;51.70;;;;;;5069144;28;20538;-52
2021/01/26 05:36:59;;;;;;;2.00;0.80;;;16.10;51.80;;;;;;5087369;28;20223;-53
2021/01/26 05:39:31;;;;;;;1.42;0.70;;;16.10;51.70;;;;;;5069644;28;20542;-53
2021/01/26 05:41:58;;;;;;;1.48;0.73;;;16.10;51.80;;;;;;5069089;28;20174;-52
2021/01/26 05:44:23;;;;;;;1.02;0.70;;;16.10;51.80;;;;;;5086833;28;20224;-52
2021/01/26 05:46:49;;;;;;;1.15;0.73;;;16.00;51.70;;;;;;5087018;28;20292;-53
2021/01/26 05:49:47;;;;;;;2.00;1.05;;;16.00;51.70;;;;;;5086946;28;20170;-58
2021/01/26 05:52:13;;;;;;;1.50;1.00;;;16.00;51.70;;;;;;5041677;28;20192;-49
2021/01/26 05:54:45;;;;;;;0.80;0.80;;;16.00;51.80;;;;;;5068702;28;20173;-52
2021/01/26 05:57:11;;;;;;;2.13;0.90;;;16.00;51.70;;;;;;5068656;28;20266;-48
2021/01/26 05:59:37;;;;;;;2.00;0.82;;;16.00;51.80;;;;;;5068307;28;20608;-52
2021/01/26 06:02:17;;;;;;;1.33;0.70;;;16.00;51.80;;;;;;5086811;28;20177;-49
2021/01/26 06:04:43;;;;;;;1.85;0.70;;;16.00;51.80;;;;;;5068525;28;20669;-52
2021/01/26 06:07:35;;;;;;;1.40;0.80;;;16.10;51.90;;;;;;5068729;28;20198;-50
2021/01/26 06:10:00;;;;;;;1.77;0.68;;;16.20;52.00;;;;;;5082420;28;20976;-49
2021/01/26 06:12:26;;;;;;;0.63;0.55;;;16.40;51.80;;;;;;5068362;28;20177;-47
2021/01/26 06:14:55;;;;;;;0.93;0.68;;;16.70;51.50;;;;;;5086419;28;20170;-50
2021/01/26 06:17:25;;;;;;;1.48;0.73;;;16.90;51.30;;;;;;5086599;28;20625;-50
2021/01/26 06:20:08;;;;;;;1.25;0.80;;;17.20;50.90;;;;;;5086663;28;20185;-55
2021/01/26 06:22:33;;;;;;;1.65;0.70;;;17.50;50.40;;;;;;5086273;28;20205;-53
2021/01/26 06:25:02;;;;;;;1.45;0.77;;;17.80;49.70;;;;;;5086318;28;20631;-47
2021/01/26 06:27:33;;;;;;;1.55;0.60;;;18.10;49.40;;;;;;5086093;28;20663;-48
2021/01/26 06:30:23;;;;;;;0.80;0.60;;;18.30;49.00;;;;;;5086044;28;20587;-50
2021/01/26 06:33:14;;;;;;;1.55;0.52;;;18.40;48.80;;;;;;5086299;28;20178;-50
2021/01/26 06:36:03;;;;;;;1.88;0.70;;;18.50;48.70;;;;;;5086235;28;20193;-50
2021/01/26 06:38:51;;;;;;;1.63;0.88;;;18.60;48.60;;;;;;5085860;28;20178;-49
2021/01/26 06:41:43;;;;;;;1.05;0.60;;;18.60;48.50;;;;;;5085998;28;20275;-50
2021/01/26 06:44:39;;;;;;;1.10;0.70;;;18.60;48.50;;;;;;5068047;28;20170;-50
2021/01/26 06:47:39;;;;;;;1.10;0.70;;;18.60;48.50;;;;;;5085475;28;20205;-51
2021/01/26 06:50:23;;;;;;;1.38;0.52;;;18.60;48.50;;;;;;5085911;28;20364;-53
2021/01/26 06:53:26;;;;;;;1.05;0.63;;;18.60;48.50;;;;;;5085654;28;20201;-50
2021/01/26 06:56:20;;;;;;;0.75;0.60;;;18.70;48.50;;;;;;5067491;28;20981;-51
2021/01/26 06:59:11;;;;;;;0.60;0.60;;;18.50;48.60;;;;;;5070274;28;20556;-51
2021/01/26 07:02:02;;;;;;;0.88;0.57;;;18.50;48.70;;;;;;5067443;28;20259;-49
2021/01/26 07:04:43;;;;;;;0.95;0.70;;;18.50;48.80;;;;;;5085591;28;20176;-51
2021/01/26 07:07:32;;;;;;;0.93;0.50;;;18.50;48.80;;;;;;5085504;28;20208;-52
2021/01/26 07:10:22;;;;;;;1.67;0.77;;;18.40;49.00;;;;;;5067241;28;20239;-54
2021/01/26 07:13:28;;;;;;;0.95;0.80;;;18.30;49.10;;;;;;5084671;28;20675;-49
2021/01/26 07:15:56;;;;;;;1.55;0.73;;;18.20;49.30;;;;;;5084999;28;20955;-50
2021/01/26 07:18:51;;;;;;;0.50;0.47;;;18.10;49.50;;;;;;5085117;28;20934;-52
2021/01/26 07:21:31;;;;;;;2.33;0.60;;;18.10;49.70;;;;;;5082711;28;20189;-55
2021/01/26 07:24:18;;;;;;;1.00;0.60;;;18.00;49.70;;;;;;5085222;28;20573;-55
2021/01/26 07:26:43;;;;;;;1.17;0.70;;;18.00;49.70;;;;;;5084825;28;20214;-52
2021/01/26 07:29:50;;;;;;;0.45;0.45;;;18.00;49.80;;;;;;5085176;28;20181;-51
2021/01/26 07:32:35;;;;;;;0.90;0.55;;;18.00;49.80;;;;;;5067234;28;20189;-47
2021/01/26 07:35:02;;;;;;;1.70;0.60;;;18.10;49.70;;;;;;5069112;28;20165;-52
2021/01/26 07:37:41;;;;;;;1.63;0.70;;;18.10;49.60;;;;;;5084975;28;20170;-53
2021/01/26 07:40:15;;;;;;;1.92;0.60;;;18.10;50.20;;;;;;5066808;28;20165;-55
2021/01/26 07:43:11;;;;;;;1.10;0.93;;;18.10;50.20;;;;;;5066657;28;20630;-50
2021/01/26 07:45:46;;;;;;;1.23;0.60;;;18.10;49.70;;;;;;5066590;28;20196;-49
2021/01/26 07:48:28;;;;;;;0.68;0.35;;;17.90;49.80;;;;;;5068160;28;20290;-56
2021/01/26 07:50:54;;;;;;;0.75;0.60;;;17.90;50.00;;;;;;5067006;28;20174;-52
2021/01/26 07:53:45;;;;;;;1.15;0.65;;;17.80;50.10;;;;;;5066466;28;20601;-51
2021/01/26 07:56:20;;;;;;;1.35;0.70;;;17.80;50.20;;;;;;5073728;28;20189;-52
2021/01/26 07:58:46;;;;;;;0.90;0.52;;;17.70;50.40;;;;;;5067286;28;20169;-50
2021/01/26 08:01:11;;;;;;;0.85;0.50;;;17.70;50.50;;;;;;5084777;28;20896;-52
2021/01/26 08:03:38;;;;;;;1.35;0.57;;;17.70;50.50;;;;;;5067073;28;20174;-51
2021/01/26 08:06:04;;;;;;;0.32;0.32;;;17.70;50.50;;;;;;5066144;28;21077;-53
2021/01/26 08:08:34;;;;;;;1.25;0.60;;;17.60;50.50;;;;;;5084008;28;20222;-49
2021/01/26 08:11:08;;;;;;;1.33;0.50;;;17.70;50.50;;;;;;5066683;28;20539;-51
2021/01/26 08:13:35;;;;;;;1.00;0.82;;;17.80;50.40;;;;;;5084385;28;20174;-55
2021/01/26 08:16:53;;;;;;;0.60;0.50;;;17.90;50.40;;;;;;5066603;28;20673;-56
2021/01/26 08:19:48;;;;;;;1.58;0.60;;;17.90;50.20;;;;;;5028629;28;20186;-62
2021/01/26 08:22:19;;;;;;;1.00;0.63;;;17.80;50.20;;;;;;5063929;28;20193;-62
2021/01/26 08:24:45;;;;;;;1.15;0.77;;;17.80;50.40;;;;;;5066254;28;20166;-61
2021/01/26 08:27:29;;;;;;;0.70;0.50;;;17.70;50.70;;;;;;5083723;28;20224;-58
2021/01/26 08:29:59;;;;;;;1.70;0.73;;;17.70;50.90;;;;;;5084125;28;20215;-57
2021/01/26 08:32:25;;;;;;;3.42;0.80;;;17.60;51.10;;;;;;5066146;28;20184;-61
2021/01/26 08:35:04;;;;;;;2.90;0.80;;;17.60;51.60;;;;;;5083951;28;20178;-58
2021/01/26 08:37:41;;;;;;;1.73;0.90;;;17.60;51.50;;;;;;5064615;28;20264;-58
2021/01/26 08:40:28;;;;;;;1.25;0.60;;;17.60;51.50;;;;;;5080546;28;20193;-60
2021/01/26 08:42:54;;;;;;;2.03;0.88;;;17.60;51.60;;;;;;5035554;28;20194;-60
2021/01/26 08:45:25;;;;;;;0.90;0.52;;;17.70;51.60;;;;;;5082821;28;20226;-61
2021/01/26 08:48:21;;;;;;;1.38;0.93;;;17.80;51.50;;;;;;5080398;28;20209;-62
2021/01/26 08:50:50;;;;;;;1.73;0.80;;;17.80;51.40;;;;;;5054800;28;20607;-61
2021/01/26 08:53:17;;;;;;;0.75;0.70;;;17.90;51.40;;;;;;5082494;28;20619;-61
2021/01/26 08:55:44;;;;;;;1.60;0.93;;;17.90;51.40;;;;;;5082415;28;20170;-61
2021/01/26 08:58:12;;;;;;;1.42;0.55;;;17.80;51.50;;;;;;5064117;28;20208;-60
2021/01/26 09:00:38;;;;;;;1.00;0.50;;;17.80;51.50;;;;;;5064272;28;20173;-61
2021/01/26 09:03:29;;;;;;;0.73;0.60;;;17.70;51.50;;;;;;5082150;28;20174;-60
2021/01/26 09:05:56;;;;;;;1.33;0.57;;;17.70;51.70;;;;;;5079831;28;20578;-59
2021/01/26 09:08:45;;;;;;;1.13;0.70;;;17.70;51.70;;;;;;5082007;28;20201;-60
2021/01/26 09:11:14;;;;;;;1.50;0.47;;;17.70;51.70;;;;;;5081874;28;20287;-58
2021/01/26 09:13:39;;;;;;;1.70;0.70;;;17.80;51.70;;;;;;5082267;28;20173;-58
2021/01/26 09:16:17;;;;;;;0.88;0.70;;;17.80;51.70;;;;;;5064324;28;20186;-59
2021/01/26 09:18:43;;;;;;;0.93;0.60;;;17.70;51.60;;;;;;5080683;28;20182;-57
2021/01/26 09:21:12;;;;;;;1.05;0.60;;;17.70;51.60;;;;;;5065762;28;20178;-61
2021/01/26 09:23:38;;;;;;;2.15;0.60;;;17.80;51.60;;;;;;5083365;28;20553;-56
2021/01/26 09:26:13;;;;;;;2.30;0.68;;;17.80;51.70;;;;;;5065614;28;20202;-61
2021/01/26 09:28:40;;;;;;;1.42;0.80;;;17.70;51.20;;;;;;5083584;28;20209;-59
2021/01/26 09:31:06;;;;;;;1.77;0.60;;;17.60;51.20;;;;;;5083723;28;20170;-58
2021/01/26 09:33:33;;;;;;;1.58;0.80;;;17.60;51.40;;;;;;5065733;28;20170;-55
2021/01/26 09:36:01;;;;;;;0.80;0.60;;;17.60;51.60;;;;;;5086986;28;20216;-60
2021/01/26 09:38:31;;;;;;;0.35;0.32;;;17.70;51.70;;;;;;5087597;28;20369;-56
2021/01/26 09:40:58;;;;;;;1.30;0.60;;;17.70;51.70;;;;;;5087483;28;20180;-56
2021/01/26 09:43:26;;;;;;;2.30;1.00;;;17.70;51.60;;;;;;5087542;28;20178;-56
2021/01/26 09:46:02;;;;;;;2.47;0.73;;;17.70;51.50;;;;;;5069606;28;20201;-58
2021/01/26 09:48:37;;;;;;;3.03;0.85;;;17.70;51.60;;;;;;5090796;28;20218;-61
2021/01/26 09:51:18;;;;;;;1.23;0.82;;;17.70;51.60;;;;;;5104385;28;20263;-58
2021/01/26 09:53:44;;;;;;;0.60;0.52;;;17.70;51.60;;;;;;5053465;28;20619;-59
2021/01/26 09:56:14;;;;;;;2.08;0.60;;;17.60;51.60;;;;;;5061279;28;20173;-60
2021/01/26 09:58:40;;;;;;;0.77;0.50;;;17.60;51.70;;;;;;5072543;28;20218;-58
2021/01/26 10:01:06;;;;;;;1.65;0.90;;;17.60;51.90;;;;;;5072451;28;20527;-59
2021/01/26 10:03:31;;;;;;;0.98;0.60;;;17.60;51.90;;;;;;5088971;28;20219;-58
2021/01/26 10:05:59;;;;;;;2.40;0.90;;;17.60;51.80;;;;;;5052451;28;20177;-58
2021/01/26 10:08:35;;;;;;;1.05;0.50;;;17.60;51.70;;;;;;5052472;28;20233;-59
2021/01/26 10:11:11;;;;;;;0.75;0.70;;;17.70;51.70;;;;;;5069421;28;20266;-55
2021/01/26 10:13:36;;;;;;;2.22;1.10;;;17.70;51.70;;;;;;5086147;28;20189;-59
2021/01/26 10:16:31;;;;;;;1.02;0.70;;;17.70;51.60;;;;;;5068234;28;20188;-57
2021/01/26 10:18:58;;;;;;;0.93;0.60;;;17.70;51.70;;;;;;5068272;28;20747;-57
2021/01/26 10:21:30;;;;;;;3.53;0.80;;;17.70;51.80;;;;;;5057498;28;20385;-59
2021/01/26 10:24:01;;;;;;;4.32;0.77;;;17.60;51.70;;;;;;5072053;28;20578;-60
2021/01/26 10:26:27;;;;;;;1.17;0.75;;;17.60;51.80;;;;;;5088550;28;20185;-59
2021/01/26 10:29:12;;;;;;;2.75;0.60;;;17.60;51.90;;;;;;5071629;28;20188;-59
2021/01/26 10:32:02;;;;;;;1.67;0.75;;;17.60;52.00;;;;;;5106524;28;20242;-58
2021/01/26 10:34:34;;;;;;;2.45;0.60;;;17.60;52.00;;;;;;5106285;28;20189;-55
2021/01/26 10:37:21;;;;;;;1.77;0.70;;;17.60;52.00;;;;;;5106181;28;20177;-58
2021/01/26 10:39:47;;;;;;;1.33;0.50;;;17.70;52.10;;;;;;5105617;28;20635;-54
2021/01/26 10:42:20;;;;;;;0.95;0.40;;;17.80;52.10;;;;;;5087908;28;20170;-57
2021/01/26 10:44:56;;;;;;;1.67;0.70;;;17.90;52.00;;;;;;5088328;28;20180;-59
2021/01/26 10:47:23;;;;;;;0.60;0.57;;;18.20;51.60;;;;;;5106217;28;20208;-56
2021/01/26 10:49:53;;;;;;;2.50;0.70;;;18.50;51.10;;;;;;5088352;28;20173;-60
2021/01/26 10:52:42;;;;;;;0.80;0.50;;;18.70;50.60;;;;;;5088199;28;20279;-59
2021/01/26 10:55:10;;;;;;;1.05;0.50;;;19.00;50.30;;;;;;5086767;28;20165;-54
2021/01/26 10:57:36;;;;;;;1.27;0.55;;;19.30;49.90;;;;;;5086048;28;20687;-59
2021/01/26 11:00:03;;;;;;;2.25;0.63;;;19.50;49.40;;;;;;5085576;28;20260;-60
2021/01/26 11:02:28;;;;;;;0.45;0.45;;;19.70;49.30;;;;;;5085881;28;20174;-58
2021/01/26 11:04:54;;;;;;;0.90;0.75;;;19.80;48.90;;;;;;5085339;28;20532;-57
2021/01/26 11:07:19;;;;;;;1.52;0.63;;;19.80;48.90;;;;;;5067335;28;20214;-53
2021/01/26 11:09:48;;;;;;;1.33;0.65;;;19.90;48.90;;;;;;5085600;28;20173;-58
2021/01/26 11:12:15;;;;;;;1.50;0.70;;;19.80;49.20;;;;;;5067595;28;20173;-56
2021/01/26 11:14:40;;;;;;;1.75;0.68;;;19.80;49.20;;;;;;5085304;28;20607;-57
2021/01/26 11:17:06;;;;;;;0.95;0.60;;;19.80;49.30;;;;;;5085120;28;20166;-56
2021/01/26 11:19:33;;;;;;;2.45;0.63;;;19.80;49.50;;;;;;5085178;28;20205;-59
2021/01/26 11:21:58;;;;;;;1.92;0.60;;;19.70;49.50;;;;;;5085052;28;20504;-61
2021/01/26 11:24:24;;;;;;;1.38;0.70;;;19.70;49.70;;;;;;5085307;28;20181;-57
2021/01/26 11:26:49;;;;;;;2.33;0.82;;;19.80;49.70;;;;;;5084995;28;20687;-59
2021/01/26 11:29:15;;;;;;;2.33;0.77;;;19.70;49.70;;;;;;5085366;28;20178;-58
2021/01/26 11:31:41;;;;;;;1.58;0.52;;;19.70;50.00;;;;;;5085064;28;20518;-52
2021/01/26 11:34:07;;;;;;;1.17;0.60;;;19.70;49.90;;;;;;5085029;28;20166;-56
2021/01/26 11:36:32;;;;;;;0.98;0.65;;;19.70;50.00;;;;;;5084530;28;20182;-58
2021/01/26 11:38:58;;;;;;;1.30;0.55;;;19.70;50.00;;;;;;5084510;28;20508;-58
2021/01/26 11:41:23;;;;;;;1.70;0.90;;;19.60;50.20;;;;;;5084570;28;20244;-56
2021/01/26 11:43:49;;;;;;;1.90;0.60;;;19.50;50.40;;;;;;5084708;28;20200;-53
2021/01/26 11:46:15;;;;;;;1.00;0.40;;;19.40;50.50;;;;;;5084503;28;20223;-58
2021/01/26 11:48:40;;;;;;;0.63;0.50;;;19.30;50.70;;;;;;5084668;28;20959;-54
2021/01/26 11:51:06;;;;;;;2.72;1.00;;;19.30;50.80;;;;;;5084585;28;20170;-58
2021/01/26 11:53:31;;;;;;;0.70;0.57;;;19.20;50.80;;;;;;5084625;28;20208;-54
2021/01/26 11:55:58;;;;;;;1.85;0.40;;;19.20;50.90;;;;;;5093943;28;20185;-55
2021/01/26 11:58:24;;;;;;;2.08;0.55;;;19.20;50.90;;;;;;5103988;28;20276;-54
2021/01/26 12:00:50;;;;;;;2.22;0.80;;;19.10;51.00;;;;;;5104543;28;20274;-56
2021/01/26 12:03:15;;;;;;;0.77;0.60;;;19.00;51.00;;;;;;5104692;28;20195;-54
2021/01/26 12:05:41;;;;;;;1.13;0.50;;;18.90;51.10;;;;;;5105047;28;20169;-58
2021/01/26 12:08:07;;;;;;;1.90;0.57;;;18.90;51.20;;;;;;5104533;28;20209;-58
2021/01/26 12:10:33;;;;;;;1.88;0.47;;;19.00;51.40;;;;;;5104743;28;20177;-53
2021/01/26 12:13:00;;;;;;;5.80;0.95;;;18.90;51.30;;;;;;5104288;28;20173;-55
2021/01/26 12:15:28;;;;;;;4.45;0.80;;;18.90;51.40;;;;;;5104357;28;20230;-57
2021/01/26 12:17:54;;;;;;;2.28;0.70;;;18.90;51.40;;;;;;5104659;28;20276;-52
2021/01/26 12:20:20;;;;;;;6.45;1.02;;;18.90;51.30;;;;;;5104546;28;20252;-55
2021/01/26 12:22:45;;;;;;;2.85;0.75;;;18.90;51.30;;;;;;5104382;28;20169;-54
2021/01/26 12:25:11;;;;;;;3.63;0.80;;;18.90;51.30;;;;;;5104512;28;20168;-57
2021/01/26 12:27:37;;;;;;;2.40;0.70;;;19.10;51.20;;;;;;5104143;28;20696;-56
2021/01/26 12:30:04;;;;;;;1.80;0.55;;;19.00;51.80;;;;;;5104271;28;20201;-52
2021/01/26 12:32:30;;;;;;;3.38;0.93;;;19.10;51.10;;;;;;5085938;28;20184;-55
2021/01/26 12:34:55;;;;;;;4.10;1.20;;;19.10;51.10;;;;;;5104150;28;20177;-56
2021/01/26 12:37:21;;;;;;;2.35;0.95;;;19.10;51.10;;;;;;5104417;28;20229;-56
2021/01/26 12:39:46;;;;;;;1.65;0.75;;;19.10;51.10;;;;;;5104432;28;20222;-60
2021/01/26 12:42:12;;;;;;;1.23;0.60;;;19.00;51.10;;;;;;5104139;28;20184;-54
2021/01/26 12:44:37;;;;;;;1.75;0.50;;;18.90;51.50;;;;;;5104258;28;20173;-59
2021/01/26 12:47:03;;;;;;;1.85;0.63;;;18.80;51.50;;;;;;5104071;28;20208;-65
2021/01/26 12:49:29;;;;;;;1.88;0.60;;;18.80;51.60;;;;;;5104361;28;20173;-60
2021/01/26 12:51:54;;;;;;;1.02;0.70;;;18.80;51.70;;;;;;5104176;28;20544;-62
2021/01/26 12:54:21;;;;;;;2.83;1.23;;;18.80;51.50;;;;;;5104190;28;20181;-63
2021/01/26 12:56:46;;;;;;;1.30;0.50;;;18.80;51.50;;;;;;5069793;28;20181;-62
2021/01/26 12:59:12;;;;;;;2.25;0.60;;;18.90;51.50;;;;;;5084010;28;20165;-63
2021/01/26 13:01:38;;;;;;;2.03;0.57;;;19.00;51.40;;;;;;5084009;28;20579;-62
2021/01/26 13:04:03;;;;;;;1.88;0.80;;;19.10;51.20;;;;;;5084155;28;20642;-63
2021/01/26 13:06:29;;;;;;;1.77;0.52;;;19.10;51.10;;;;;;5084085;28;20170;-62
2021/01/26 13:08:55;;;;;;;1.65;0.60;;;19.10;51.10;;;;;;5065795;28;20217;-61
2021/01/26 13:11:20;;;;;;;0.85;0.52;;;19.10;51.20;;;;;;5088070;28;20170;-63
2021/01/26 13:13:46;;;;;;;1.60;0.60;;;19.10;51.20;;;;;;5087741;28;20173;-63